sensor_id;sensor_type;location;lat;lon;timestamp;P1;durP1;ratioP1;P2;durP2;ratioP2
54983;SDS011;40884;53.562;9.940;2023-03-31T00:00:52;9.63;;;2.93;;
54983;SDS011;40884;53.562;9.940;2023-03-31T00:01:52;15.90;;;3.40;;
54983;SDS011;40884;53.562;9.940;2023-03-31T00:02:52;14.83;;;3.30;;
54983;SDS011;40884;53.562;9.940;2023-03-31T00:03:53;12.20;;;3.57;;
54983;SDS011;40884;53.562;9.940;2023-03-31T00:04:53;17.33;;;3.83;;
54983;SDS011;40884;53.562;9.940;2023-03-31T00:05:54;12.20;;;3.40;;
54983;SDS011;40884;53.562;9.940;2023-03-31T00:06:54;16.40;;;4.27;;
54983;SDS011;40884;53.562;9.940;2023-03-31T00:07:55;14.37;;;3.23;;
54983;SDS011;40884;53.562;9.940;2023-03-31T00:08:55;15.23;;;3.33;;
54983;SDS011;40884;53.562;9.940;2023-03-31T00:09:56;15.40;;;4.03;;
54983;SDS011;40884;53.562;9.940;2023-03-31T00:10:59;12.23;;;3.27;;
54983;SDS011;40884;53.562;9.940;2023-03-31T00:11:59;17.20;;;3.57;;
54983;SDS011;40884;53.562;9.940;2023-03-31T00:13:00;15.77;;;3.40;;
54983;SDS011;40884;53.562;9.940;2023-03-31T00:14:00;16.50;;;4.10;;
54983;SDS011;40884;53.562;9.940;2023-03-31T00:15:00;13.80;;;3.40;;
54983;SDS011;40884;53.562;9.940;2023-03-31T00:16:02;15.63;;;3.53;;
54983;SDS011;40884;53.562;9.940;2023-03-31T00:17:02;13.77;;;3.30;;
54983;SDS011;40884;53.562;9.940;2023-03-31T00:18:03;13.43;;;3.40;;
54983;SDS011;40884;53.562;9.940;2023-03-31T00:19:03;13.77;;;3.70;;
54983;SDS011;40884;53.562;9.940;2023-03-31T00:20:04;12.97;;;3.33;;
54983;SDS011;40884;53.562;9.940;2023-03-31T00:21:05;12.93;;;3.20;;
54983;SDS011;40884;53.562;9.940;2023-03-31T00:22:06;18.33;;;3.37;;
54983;SDS011;40884;53.562;9.940;2023-03-31T00:23:06;14.37;;;3.83;;
54983;SDS011;40884;53.562;9.940;2023-03-31T00:24:07;16.17;;;3.23;;
54983;SDS011;40884;53.562;9.940;2023-03-31T00:25:08;13.67;;;3.27;;
54983;SDS011;40884;53.562;9.940;2023-03-31T00:26:09;14.30;;;3.03;;
54983;SDS011;40884;53.562;9.940;2023-03-31T00:27:09;18.10;;;3.60;;
54983;SDS011;40884;53.562;9.940;2023-03-31T00:28:09;11.57;;;2.90;;
54983;SDS011;40884;53.562;9.940;2023-03-31T00:29:11;16.53;;;3.53;;
54983;SDS011;40884;53.562;9.940;2023-03-31T00:30:12;15.00;;;3.33;;
54983;SDS011;40884;53.562;9.940;2023-03-31T00:31:12;8.27;;;3.07;;
54983;SDS011;40884;53.562;9.940;2023-03-31T00:32:12;13.03;;;3.00;;
54983;SDS011;40884;53.562;9.940;2023-03-31T00:33:13;11.03;;;3.10;;
54983;SDS011;40884;53.562;9.940;2023-03-31T00:34:13;13.20;;;3.10;;
54983;SDS011;40884;53.562;9.940;2023-03-31T00:35:13;14.67;;;3.60;;
54983;SDS011;40884;53.562;9.940;2023-03-31T00:36:14;13.77;;;3.33;;
54983;SDS011;40884;53.562;9.940;2023-03-31T00:37:14;12.57;;;3.47;;
54983;SDS011;40884;53.562;9.940;2023-03-31T00:38:14;14.47;;;3.47;;
54983;SDS011;40884;53.562;9.940;2023-03-31T00:39:15;17.50;;;3.17;;
54983;SDS011;40884;53.562;9.940;2023-03-31T00:40:16;11.60;;;3.23;;
54983;SDS011;40884;53.562;9.940;2023-03-31T00:41:16;13.03;;;3.20;;
54983;SDS011;40884;53.562;9.940;2023-03-31T00:42:16;11.93;;;3.33;;
54983;SDS011;40884;53.562;9.940;2023-03-31T00:43:33;13.80;;;2.93;;
54983;SDS011;40884;53.562;9.940;2023-03-31T00:44:34;13.17;;;3.27;;
54983;SDS011;40884;53.562;9.940;2023-03-31T00:45:35;16.37;;;3.67;;
54983;SDS011;40884;53.562;9.940;2023-03-31T00:46:43;12.50;;;3.13;;
54983;SDS011;40884;53.562;9.940;2023-03-31T00:47:46;14.07;;;3.57;;
54983;SDS011;40884;53.562;9.940;2023-03-31T00:48:51;12.53;;;3.67;;
54983;SDS011;40884;53.562;9.940;2023-03-31T00:49:53;16.23;;;4.00;;
54983;SDS011;40884;53.562;9.940;2023-03-31T00:50:56;13.80;;;3.10;;
54983;SDS011;40884;53.562;9.940;2023-03-31T00:51:59;16.03;;;3.90;;
54983;SDS011;40884;53.562;9.940;2023-03-31T00:53:07;14.90;;;3.13;;
54983;SDS011;40884;53.562;9.940;2023-03-31T00:54:09;17.33;;;3.80;;
54983;SDS011;40884;53.562;9.940;2023-03-31T00:55:11;16.90;;;3.97;;
54983;SDS011;40884;53.562;9.940;2023-03-31T00:56:13;12.47;;;3.33;;
54983;SDS011;40884;53.562;9.940;2023-03-31T00:57:13;12.90;;;2.97;;
54983;SDS011;40884;53.562;9.940;2023-03-31T00:58:14;13.40;;;3.17;;
54983;SDS011;40884;53.562;9.940;2023-03-31T00:59:14;16.70;;;3.40;;
54983;SDS011;40884;53.562;9.940;2023-03-31T01:00:15;11.33;;;3.03;;
54983;SDS011;40884;53.562;9.940;2023-03-31T01:01:16;14.67;;;3.50;;
54983;SDS011;40884;53.562;9.940;2023-03-31T01:02:18;17.77;;;3.67;;
54983;SDS011;40884;53.562;9.940;2023-03-31T01:03:18;13.53;;;3.13;;
54983;SDS011;40884;53.562;9.940;2023-03-31T01:04:18;13.63;;;3.43;;
54983;SDS011;40884;53.562;9.940;2023-03-31T01:05:20;17.57;;;4.13;;
54983;SDS011;40884;53.562;9.940;2023-03-31T01:06:22;15.83;;;3.70;;
54983;SDS011;40884;53.562;9.940;2023-03-31T01:07:24;16.57;;;3.53;;
54983;SDS011;40884;53.562;9.940;2023-03-31T01:08:26;11.37;;;3.03;;
54983;SDS011;40884;53.562;9.940;2023-03-31T01:09:28;9.47;;;2.83;;
54983;SDS011;40884;53.562;9.940;2023-03-31T01:10:28;13.70;;;3.17;;
54983;SDS011;40884;53.562;9.940;2023-03-31T01:11:31;17.13;;;3.30;;
54983;SDS011;40884;53.562;9.940;2023-03-31T01:12:33;11.73;;;3.23;;
54983;SDS011;40884;53.562;9.940;2023-03-31T01:13:36;15.07;;;3.33;;
54983;SDS011;40884;53.562;9.940;2023-03-31T01:14:37;13.90;;;3.23;;
54983;SDS011;40884;53.562;9.940;2023-03-31T01:15:37;15.43;;;3.27;;
54983;SDS011;40884;53.562;9.940;2023-03-31T01:16:37;11.23;;;2.83;;
54983;SDS011;40884;53.562;9.940;2023-03-31T01:17:38;11.93;;;3.10;;
54983;SDS011;40884;53.562;9.940;2023-03-31T01:18:38;17.23;;;3.67;;
54983;SDS011;40884;53.562;9.940;2023-03-31T01:19:46;15.17;;;3.53;;
54983;SDS011;40884;53.562;9.940;2023-03-31T01:22:16;12.80;;;3.40;;
54983;SDS011;40884;53.562;9.940;2023-03-31T01:23:29;11.57;;;3.20;;
54983;SDS011;40884;53.562;9.940;2023-03-31T01:24:42;12.53;;;2.70;;
54983;SDS011;40884;53.562;9.940;2023-03-31T01:26:02;16.10;;;3.73;;
54983;SDS011;40884;53.562;9.940;2023-03-31T01:27:14;11.47;;;3.30;;
54983;SDS011;40884;53.562;9.940;2023-03-31T01:29:47;11.03;;;3.40;;
54983;SDS011;40884;53.562;9.940;2023-03-31T01:33:35;15.33;;;3.47;;
54983;SDS011;40884;53.562;9.940;2023-03-31T01:36:08;11.73;;;2.97;;
54983;SDS011;40884;53.562;9.940;2023-03-31T01:37:21;13.23;;;3.43;;
54983;SDS011;40884;53.562;9.940;2023-03-31T01:38:45;11.70;;;3.27;;
54983;SDS011;40884;53.562;9.940;2023-03-31T01:40:08;17.77;;;3.67;;
54983;SDS011;40884;53.562;9.940;2023-03-31T01:42:21;14.87;;;3.60;;
54983;SDS011;40884;53.562;9.940;2023-03-31T01:43:40;15.53;;;3.67;;
54983;SDS011;40884;53.562;9.940;2023-03-31T01:44:54;13.80;;;3.80;;
54983;SDS011;40884;53.562;9.940;2023-03-31T01:47:23;13.50;;;3.43;;
54983;SDS011;40884;53.562;9.940;2023-03-31T01:49:45;12.17;;;3.93;;
54983;SDS011;40884;53.562;9.940;2023-03-31T01:50:57;16.30;;;3.27;;
54983;SDS011;40884;53.562;9.940;2023-03-31T01:51:59;16.03;;;3.60;;
54983;SDS011;40884;53.562;9.940;2023-03-31T01:53:03;9.10;;;3.00;;
54983;SDS011;40884;53.562;9.940;2023-03-31T01:56:37;12.90;;;3.10;;
54983;SDS011;40884;53.562;9.940;2023-03-31T01:57:40;11.70;;;3.33;;
54983;SDS011;40884;53.562;9.940;2023-03-31T01:58:41;10.90;;;2.73;;
54983;SDS011;40884;53.562;9.940;2023-03-31T01:59:47;13.77;;;3.33;;
54983;SDS011;40884;53.562;9.940;2023-03-31T02:00:59;14.53;;;3.70;;
54983;SDS011;40884;53.562;9.940;2023-03-31T02:02:05;9.53;;;3.10;;
54983;SDS011;40884;53.562;9.940;2023-03-31T02:03:17;13.23;;;3.27;;
54983;SDS011;40884;53.562;9.940;2023-03-31T02:04:30;12.30;;;3.40;;
54983;SDS011;40884;53.562;9.940;2023-03-31T02:05:34;12.40;;;3.50;;
54983;SDS011;40884;53.562;9.940;2023-03-31T02:06:37;15.03;;;3.70;;
54983;SDS011;40884;53.562;9.940;2023-03-31T02:07:41;8.43;;;3.07;;
54983;SDS011;40884;53.562;9.940;2023-03-31T02:08:43;10.87;;;3.57;;
54983;SDS011;40884;53.562;9.940;2023-03-31T02:09:46;11.10;;;3.27;;
54983;SDS011;40884;53.562;9.940;2023-03-31T02:10:48;15.10;;;3.43;;
54983;SDS011;40884;53.562;9.940;2023-03-31T02:11:49;13.50;;;3.63;;
54983;SDS011;40884;53.562;9.940;2023-03-31T02:12:50;12.33;;;3.30;;
54983;SDS011;40884;53.562;9.940;2023-03-31T02:13:53;11.23;;;3.73;;
54983;SDS011;40884;53.562;9.940;2023-03-31T02:14:54;14.33;;;3.93;;
54983;SDS011;40884;53.562;9.940;2023-03-31T02:15:57;10.33;;;3.23;;
54983;SDS011;40884;53.562;9.940;2023-03-31T02:16:58;17.03;;;4.27;;
54983;SDS011;40884;53.562;9.940;2023-03-31T02:18:00;11.40;;;3.20;;
54983;SDS011;40884;53.562;9.940;2023-03-31T02:19:03;12.77;;;3.50;;
54983;SDS011;40884;53.562;9.940;2023-03-31T02:20:06;11.60;;;3.50;;
54983;SDS011;40884;53.562;9.940;2023-03-31T02:21:07;12.13;;;3.90;;
54983;SDS011;40884;53.562;9.940;2023-03-31T02:22:09;8.93;;;3.33;;
54983;SDS011;40884;53.562;9.940;2023-03-31T02:23:11;12.90;;;3.80;;
54983;SDS011;40884;53.562;9.940;2023-03-31T02:24:13;11.13;;;3.60;;
54983;SDS011;40884;53.562;9.940;2023-03-31T02:25:14;13.83;;;4.00;;
54983;SDS011;40884;53.562;9.940;2023-03-31T02:26:18;11.17;;;3.97;;
54983;SDS011;40884;53.562;9.940;2023-03-31T02:28:26;14.10;;;4.03;;
54983;SDS011;40884;53.562;9.940;2023-03-31T02:29:27;13.77;;;4.57;;
54983;SDS011;40884;53.562;9.940;2023-03-31T02:30:32;12.60;;;4.00;;
54983;SDS011;40884;53.562;9.940;2023-03-31T02:31:52;13.43;;;3.90;;
54983;SDS011;40884;53.562;9.940;2023-03-31T02:32:55;12.20;;;4.47;;
54983;SDS011;40884;53.562;9.940;2023-03-31T02:33:55;13.23;;;3.90;;
54983;SDS011;40884;53.562;9.940;2023-03-31T02:34:55;15.33;;;3.87;;
54983;SDS011;40884;53.562;9.940;2023-03-31T02:35:56;11.30;;;3.73;;
54983;SDS011;40884;53.562;9.940;2023-03-31T02:36:57;17.30;;;4.47;;
54983;SDS011;40884;53.562;9.940;2023-03-31T02:37:57;9.57;;;3.27;;
54983;SDS011;40884;53.562;9.940;2023-03-31T02:38:58;12.70;;;4.20;;
54983;SDS011;40884;53.562;9.940;2023-03-31T02:40:04;12.80;;;3.90;;
54983;SDS011;40884;53.562;9.940;2023-03-31T02:41:05;11.90;;;3.60;;
54983;SDS011;40884;53.562;9.940;2023-03-31T02:42:06;16.47;;;4.57;;
54983;SDS011;40884;53.562;9.940;2023-03-31T02:43:07;11.53;;;3.87;;
54983;SDS011;40884;53.562;9.940;2023-03-31T02:44:07;14.10;;;4.53;;
54983;SDS011;40884;53.562;9.940;2023-03-31T02:46:27;16.73;;;4.53;;
54983;SDS011;40884;53.562;9.940;2023-03-31T02:47:27;12.90;;;3.93;;
54983;SDS011;40884;53.562;9.940;2023-03-31T02:48:28;8.63;;;3.83;;
54983;SDS011;40884;53.562;9.940;2023-03-31T02:49:29;8.67;;;3.37;;
54983;SDS011;40884;53.562;9.940;2023-03-31T02:50:31;12.23;;;4.20;;
54983;SDS011;40884;53.562;9.940;2023-03-31T02:52:43;11.23;;;3.70;;
54983;SDS011;40884;53.562;9.940;2023-03-31T02:54:04;10.47;;;3.97;;
54983;SDS011;40884;53.562;9.940;2023-03-31T02:55:36;12.80;;;4.43;;
54983;SDS011;40884;53.562;9.940;2023-03-31T02:58:03;14.63;;;4.43;;
54983;SDS011;40884;53.562;9.940;2023-03-31T03:00:25;10.77;;;4.30;;
54983;SDS011;40884;53.562;9.940;2023-03-31T03:01:35;17.30;;;5.23;;
54983;SDS011;40884;53.562;9.940;2023-03-31T03:02:47;12.03;;;4.50;;
54983;SDS011;40884;53.562;9.940;2023-03-31T03:04:35;13.97;;;4.70;;
54983;SDS011;40884;53.562;9.940;2023-03-31T03:05:20;13.50;;;3.77;;
54983;SDS011;40884;53.562;9.940;2023-03-31T03:06:41;11.80;;;4.30;;
54983;SDS011;40884;53.562;9.940;2023-03-31T03:07:57;13.10;;;4.20;;
54983;SDS011;40884;53.562;9.940;2023-03-31T03:10:02;11.63;;;4.37;;
54983;SDS011;40884;53.562;9.940;2023-03-31T03:12:21;11.17;;;4.47;;
54983;SDS011;40884;53.562;9.940;2023-03-31T03:13:30;13.23;;;5.33;;
54983;SDS011;40884;53.562;9.940;2023-03-31T03:14:39;11.80;;;3.97;;
54983;SDS011;40884;53.562;9.940;2023-03-31T03:15:46;10.50;;;4.30;;
54983;SDS011;40884;53.562;9.940;2023-03-31T03:16:48;9.07;;;4.13;;
54983;SDS011;40884;53.562;9.940;2023-03-31T03:17:49;10.67;;;4.57;;
54983;SDS011;40884;53.562;9.940;2023-03-31T03:18:56;10.73;;;3.83;;
54983;SDS011;40884;53.562;9.940;2023-03-31T03:19:58;12.63;;;4.47;;
54983;SDS011;40884;53.562;9.940;2023-03-31T03:20:59;11.10;;;4.33;;
54983;SDS011;40884;53.562;9.940;2023-03-31T03:21:59;11.20;;;3.63;;
54983;SDS011;40884;53.562;9.940;2023-03-31T03:22:59;10.63;;;4.63;;
54983;SDS011;40884;53.562;9.940;2023-03-31T03:23:59;13.27;;;4.27;;
54983;SDS011;40884;53.562;9.940;2023-03-31T03:24:59;12.33;;;4.97;;
54983;SDS011;40884;53.562;9.940;2023-03-31T03:25:59;15.47;;;5.13;;
54983;SDS011;40884;53.562;9.940;2023-03-31T03:26:59;12.07;;;4.63;;
54983;SDS011;40884;53.562;9.940;2023-03-31T03:28:00;14.27;;;4.50;;
54983;SDS011;40884;53.562;9.940;2023-03-31T03:29:00;13.57;;;5.00;;
54983;SDS011;40884;53.562;9.940;2023-03-31T03:30:00;12.63;;;4.83;;
54983;SDS011;40884;53.562;9.940;2023-03-31T03:31:01;15.03;;;4.57;;
54983;SDS011;40884;53.562;9.940;2023-03-31T03:32:01;10.83;;;4.27;;
54983;SDS011;40884;53.562;9.940;2023-03-31T03:33:01;10.80;;;4.83;;
54983;SDS011;40884;53.562;9.940;2023-03-31T03:34:01;11.80;;;4.80;;
54983;SDS011;40884;53.562;9.940;2023-03-31T03:35:02;12.67;;;4.43;;
54983;SDS011;40884;53.562;9.940;2023-03-31T03:36:02;10.30;;;4.13;;
54983;SDS011;40884;53.562;9.940;2023-03-31T03:37:02;12.50;;;3.80;;
54983;SDS011;40884;53.562;9.940;2023-03-31T03:38:03;11.83;;;4.67;;
54983;SDS011;40884;53.562;9.940;2023-03-31T03:39:03;9.77;;;4.30;;
54983;SDS011;40884;53.562;9.940;2023-03-31T03:40:04;11.73;;;4.37;;
54983;SDS011;40884;53.562;9.940;2023-03-31T03:41:04;12.33;;;4.60;;
54983;SDS011;40884;53.562;9.940;2023-03-31T03:42:04;9.77;;;4.10;;
54983;SDS011;40884;53.562;9.940;2023-03-31T03:43:04;12.37;;;4.23;;
54983;SDS011;40884;53.562;9.940;2023-03-31T03:44:05;11.27;;;4.40;;
54983;SDS011;40884;53.562;9.940;2023-03-31T03:45:05;10.77;;;4.23;;
54983;SDS011;40884;53.562;9.940;2023-03-31T03:46:05;8.17;;;3.70;;
54983;SDS011;40884;53.562;9.940;2023-03-31T03:47:05;11.47;;;4.10;;
54983;SDS011;40884;53.562;9.940;2023-03-31T03:48:05;10.00;;;4.30;;
54983;SDS011;40884;53.562;9.940;2023-03-31T03:49:06;11.10;;;4.90;;
54983;SDS011;40884;53.562;9.940;2023-03-31T03:50:06;9.73;;;3.60;;
54983;SDS011;40884;53.562;9.940;2023-03-31T03:51:06;13.00;;;5.20;;
54983;SDS011;40884;53.562;9.940;2023-03-31T03:52:06;9.83;;;5.10;;
54983;SDS011;40884;53.562;9.940;2023-03-31T03:53:07;12.97;;;4.97;;
54983;SDS011;40884;53.562;9.940;2023-03-31T03:54:07;10.07;;;3.90;;
54983;SDS011;40884;53.562;9.940;2023-03-31T03:55:07;8.77;;;3.90;;
54983;SDS011;40884;53.562;9.940;2023-03-31T03:56:07;11.33;;;5.10;;
54983;SDS011;40884;53.562;9.940;2023-03-31T03:57:07;9.53;;;3.87;;
54983;SDS011;40884;53.562;9.940;2023-03-31T03:58:08;12.20;;;4.63;;
54983;SDS011;40884;53.562;9.940;2023-03-31T03:59:09;8.13;;;3.77;;
54983;SDS011;40884;53.562;9.940;2023-03-31T04:00:09;8.43;;;4.23;;
54983;SDS011;40884;53.562;9.940;2023-03-31T04:01:11;10.57;;;4.67;;
54983;SDS011;40884;53.562;9.940;2023-03-31T04:02:11;10.00;;;4.23;;
54983;SDS011;40884;53.562;9.940;2023-03-31T04:03:12;10.80;;;4.93;;
54983;SDS011;40884;53.562;9.940;2023-03-31T04:04:12;11.37;;;4.63;;
54983;SDS011;40884;53.562;9.940;2023-03-31T04:05:12;10.10;;;4.67;;
54983;SDS011;40884;53.562;9.940;2023-03-31T04:06:12;13.60;;;4.87;;
54983;SDS011;40884;53.562;9.940;2023-03-31T04:07:12;12.77;;;5.30;;
54983;SDS011;40884;53.562;9.940;2023-03-31T04:08:12;13.33;;;5.47;;
54983;SDS011;40884;53.562;9.940;2023-03-31T04:09:13;9.40;;;4.63;;
54983;SDS011;40884;53.562;9.940;2023-03-31T04:10:13;10.30;;;4.60;;
54983;SDS011;40884;53.562;9.940;2023-03-31T04:11:14;11.23;;;4.80;;
54983;SDS011;40884;53.562;9.940;2023-03-31T04:12:14;12.27;;;4.60;;
54983;SDS011;40884;53.562;9.940;2023-03-31T04:13:15;11.23;;;5.17;;
54983;SDS011;40884;53.562;9.940;2023-03-31T04:14:15;11.37;;;5.60;;
54983;SDS011;40884;53.562;9.940;2023-03-31T04:15:15;11.53;;;5.60;;
54983;SDS011;40884;53.562;9.940;2023-03-31T04:16:15;11.70;;;5.33;;
54983;SDS011;40884;53.562;9.940;2023-03-31T04:17:15;12.80;;;5.77;;
54983;SDS011;40884;53.562;9.940;2023-03-31T04:18:15;13.70;;;5.90;;
54983;SDS011;40884;53.562;9.940;2023-03-31T04:19:15;13.33;;;5.97;;
54983;SDS011;40884;53.562;9.940;2023-03-31T04:20:16;12.67;;;6.13;;
54983;SDS011;40884;53.562;9.940;2023-03-31T04:21:16;10.00;;;5.47;;
54983;SDS011;40884;53.562;9.940;2023-03-31T04:22:16;14.57;;;6.17;;
54983;SDS011;40884;53.562;9.940;2023-03-31T04:23:16;11.67;;;5.97;;
54983;SDS011;40884;53.562;9.940;2023-03-31T04:24:16;14.97;;;6.03;;
54983;SDS011;40884;53.562;9.940;2023-03-31T04:25:16;14.73;;;6.23;;
54983;SDS011;40884;53.562;9.940;2023-03-31T04:26:17;9.23;;;4.63;;
54983;SDS011;40884;53.562;9.940;2023-03-31T04:27:17;12.73;;;5.73;;
54983;SDS011;40884;53.562;9.940;2023-03-31T04:28:17;11.33;;;6.00;;
54983;SDS011;40884;53.562;9.940;2023-03-31T04:29:17;13.43;;;6.37;;
54983;SDS011;40884;53.562;9.940;2023-03-31T04:30:17;11.47;;;5.37;;
54983;SDS011;40884;53.562;9.940;2023-03-31T04:31:18;11.30;;;6.00;;
54983;SDS011;40884;53.562;9.940;2023-03-31T04:32:18;11.53;;;5.13;;
54983;SDS011;40884;53.562;9.940;2023-03-31T04:33:18;14.40;;;6.07;;
54983;SDS011;40884;53.562;9.940;2023-03-31T04:34:18;13.77;;;6.30;;
54983;SDS011;40884;53.562;9.940;2023-03-31T04:35:19;12.00;;;5.17;;
54983;SDS011;40884;53.562;9.940;2023-03-31T04:36:20;9.43;;;5.20;;
54983;SDS011;40884;53.562;9.940;2023-03-31T04:37:20;11.07;;;5.80;;
54983;SDS011;40884;53.562;9.940;2023-03-31T04:38:21;10.90;;;5.97;;
54983;SDS011;40884;53.562;9.940;2023-03-31T04:39:21;12.83;;;6.83;;
54983;SDS011;40884;53.562;9.940;2023-03-31T04:40:21;12.77;;;6.23;;
54983;SDS011;40884;53.562;9.940;2023-03-31T04:41:22;11.47;;;5.53;;
54983;SDS011;40884;53.562;9.940;2023-03-31T04:42:22;13.13;;;6.53;;
54983;SDS011;40884;53.562;9.940;2023-03-31T04:43:22;9.80;;;5.20;;
54983;SDS011;40884;53.562;9.940;2023-03-31T04:44:23;13.43;;;6.20;;
54983;SDS011;40884;53.562;9.940;2023-03-31T04:45:23;11.20;;;5.30;;
54983;SDS011;40884;53.562;9.940;2023-03-31T04:46:23;12.10;;;6.60;;
54983;SDS011;40884;53.562;9.940;2023-03-31T04:47:23;15.07;;;6.27;;
54983;SDS011;40884;53.562;9.940;2023-03-31T04:48:23;15.13;;;7.87;;
54983;SDS011;40884;53.562;9.940;2023-03-31T04:49:23;13.80;;;6.00;;
54983;SDS011;40884;53.562;9.940;2023-03-31T04:50:23;13.33;;;6.57;;
54983;SDS011;40884;53.562;9.940;2023-03-31T04:51:23;12.30;;;6.53;;
54983;SDS011;40884;53.562;9.940;2023-03-31T04:52:23;13.73;;;6.43;;
54983;SDS011;40884;53.562;9.940;2023-03-31T04:53:24;13.13;;;6.57;;
54983;SDS011;40884;53.562;9.940;2023-03-31T04:54:24;14.97;;;6.67;;
54983;SDS011;40884;53.562;9.940;2023-03-31T04:55:24;11.13;;;5.17;;
54983;SDS011;40884;53.562;9.940;2023-03-31T04:56:24;13.03;;;5.87;;
54983;SDS011;40884;53.562;9.940;2023-03-31T04:57:24;11.57;;;5.93;;
54983;SDS011;40884;53.562;9.940;2023-03-31T04:58:24;12.00;;;6.13;;
54983;SDS011;40884;53.562;9.940;2023-03-31T04:59:24;15.97;;;6.23;;
54983;SDS011;40884;53.562;9.940;2023-03-31T05:00:25;12.57;;;5.67;;
54983;SDS011;40884;53.562;9.940;2023-03-31T05:01:25;12.13;;;5.97;;
54983;SDS011;40884;53.562;9.940;2023-03-31T05:02:25;16.70;;;7.03;;
54983;SDS011;40884;53.562;9.940;2023-03-31T05:03:25;15.93;;;7.17;;
54983;SDS011;40884;53.562;9.940;2023-03-31T05:04:25;17.87;;;7.50;;
54983;SDS011;40884;53.562;9.940;2023-03-31T05:05:25;17.63;;;9.13;;
54983;SDS011;40884;53.562;9.940;2023-03-31T05:06:25;13.80;;;8.13;;
54983;SDS011;40884;53.562;9.940;2023-03-31T05:07:25;11.77;;;7.57;;
54983;SDS011;40884;53.562;9.940;2023-03-31T05:08:25;16.43;;;7.70;;
54983;SDS011;40884;53.562;9.940;2023-03-31T05:09:26;14.77;;;7.60;;
54983;SDS011;40884;53.562;9.940;2023-03-31T05:10:26;14.37;;;7.87;;
54983;SDS011;40884;53.562;9.940;2023-03-31T05:11:26;14.03;;;7.03;;
54983;SDS011;40884;53.562;9.940;2023-03-31T05:12:26;13.63;;;7.70;;
54983;SDS011;40884;53.562;9.940;2023-03-31T05:13:26;18.27;;;8.20;;
54983;SDS011;40884;53.562;9.940;2023-03-31T05:14:27;12.37;;;7.93;;
54983;SDS011;40884;53.562;9.940;2023-03-31T05:15:27;13.63;;;7.70;;
54983;SDS011;40884;53.562;9.940;2023-03-31T05:16:27;15.10;;;7.57;;
54983;SDS011;40884;53.562;9.940;2023-03-31T05:17:29;11.83;;;6.63;;
54983;SDS011;40884;53.562;9.940;2023-03-31T05:18:29;13.67;;;7.17;;
54983;SDS011;40884;53.562;9.940;2023-03-31T05:19:30;15.97;;;6.90;;
54983;SDS011;40884;53.562;9.940;2023-03-31T05:20:30;17.00;;;6.67;;
54983;SDS011;40884;53.562;9.940;2023-03-31T05:21:30;15.07;;;7.20;;
54983;SDS011;40884;53.562;9.940;2023-03-31T05:22:31;12.60;;;7.10;;
54983;SDS011;40884;53.562;9.940;2023-03-31T05:23:32;13.63;;;7.27;;
54983;SDS011;40884;53.562;9.940;2023-03-31T05:24:32;13.70;;;7.17;;
54983;SDS011;40884;53.562;9.940;2023-03-31T05:25:33;13.13;;;7.60;;
54983;SDS011;40884;53.562;9.940;2023-03-31T05:26:33;11.93;;;6.90;;
54983;SDS011;40884;53.562;9.940;2023-03-31T05:27:33;15.67;;;7.37;;
54983;SDS011;40884;53.562;9.940;2023-03-31T05:28:34;11.80;;;6.30;;
54983;SDS011;40884;53.562;9.940;2023-03-31T05:29:34;16.10;;;6.80;;
54983;SDS011;40884;53.562;9.940;2023-03-31T05:30:34;14.37;;;7.77;;
54983;SDS011;40884;53.562;9.940;2023-03-31T05:31:34;16.60;;;7.70;;
54983;SDS011;40884;53.562;9.940;2023-03-31T05:32:35;16.13;;;7.43;;
54983;SDS011;40884;53.562;9.940;2023-03-31T05:33:35;17.50;;;7.83;;
54983;SDS011;40884;53.562;9.940;2023-03-31T05:34:35;16.30;;;8.67;;
54983;SDS011;40884;53.562;9.940;2023-03-31T05:35:35;13.20;;;7.67;;
54983;SDS011;40884;53.562;9.940;2023-03-31T05:36:35;14.53;;;7.20;;
54983;SDS011;40884;53.562;9.940;2023-03-31T05:37:35;15.50;;;7.63;;
54983;SDS011;40884;53.562;9.940;2023-03-31T05:38:36;15.00;;;7.30;;
54983;SDS011;40884;53.562;9.940;2023-03-31T05:39:37;16.77;;;7.53;;
54983;SDS011;40884;53.562;9.940;2023-03-31T05:40:37;15.90;;;7.47;;
54983;SDS011;40884;53.562;9.940;2023-03-31T05:41:37;15.50;;;6.97;;
54983;SDS011;40884;53.562;9.940;2023-03-31T05:42:37;16.10;;;7.63;;
54983;SDS011;40884;53.562;9.940;2023-03-31T05:43:37;16.30;;;6.93;;
54983;SDS011;40884;53.562;9.940;2023-03-31T05:44:37;15.20;;;7.63;;
54983;SDS011;40884;53.562;9.940;2023-03-31T05:45:38;17.00;;;7.33;;
54983;SDS011;40884;53.562;9.940;2023-03-31T05:46:38;17.13;;;7.30;;
54983;SDS011;40884;53.562;9.940;2023-03-31T05:47:38;14.80;;;7.10;;
54983;SDS011;40884;53.562;9.940;2023-03-31T05:48:38;13.23;;;6.20;;
54983;SDS011;40884;53.562;9.940;2023-03-31T05:49:38;14.90;;;7.00;;
54983;SDS011;40884;53.562;9.940;2023-03-31T05:50:38;14.07;;;7.43;;
54983;SDS011;40884;53.562;9.940;2023-03-31T05:51:38;12.97;;;7.33;;
54983;SDS011;40884;53.562;9.940;2023-03-31T05:52:39;14.07;;;7.27;;
54983;SDS011;40884;53.562;9.940;2023-03-31T05:53:39;15.47;;;6.10;;
54983;SDS011;40884;53.562;9.940;2023-03-31T05:54:39;10.57;;;6.03;;
54983;SDS011;40884;53.562;9.940;2023-03-31T05:55:39;12.50;;;6.60;;
54983;SDS011;40884;53.562;9.940;2023-03-31T05:56:39;12.87;;;6.60;;
54983;SDS011;40884;53.562;9.940;2023-03-31T05:57:39;14.47;;;6.50;;
54983;SDS011;40884;53.562;9.940;2023-03-31T05:58:39;15.23;;;6.93;;
54983;SDS011;40884;53.562;9.940;2023-03-31T05:59:39;13.23;;;6.67;;
54983;SDS011;40884;53.562;9.940;2023-03-31T06:00:39;14.57;;;7.10;;
54983;SDS011;40884;53.562;9.940;2023-03-31T06:01:40;15.60;;;6.97;;
54983;SDS011;40884;53.562;9.940;2023-03-31T06:02:40;13.87;;;6.57;;
54983;SDS011;40884;53.562;9.940;2023-03-31T06:03:40;13.20;;;6.90;;
54983;SDS011;40884;53.562;9.940;2023-03-31T06:04:40;17.53;;;7.50;;
54983;SDS011;40884;53.562;9.940;2023-03-31T06:05:45;12.03;;;5.57;;
54983;SDS011;40884;53.562;9.940;2023-03-31T06:06:45;12.17;;;6.70;;
54983;SDS011;40884;53.562;9.940;2023-03-31T06:07:46;12.37;;;6.80;;
54983;SDS011;40884;53.562;9.940;2023-03-31T06:08:46;14.37;;;6.67;;
54983;SDS011;40884;53.562;9.940;2023-03-31T06:09:46;15.13;;;7.10;;
54983;SDS011;40884;53.562;9.940;2023-03-31T06:10:46;13.53;;;6.77;;
54983;SDS011;40884;53.562;9.940;2023-03-31T06:11:46;11.03;;;6.03;;
54983;SDS011;40884;53.562;9.940;2023-03-31T06:12:46;12.47;;;6.37;;
54983;SDS011;40884;53.562;9.940;2023-03-31T06:13:47;17.43;;;7.13;;
54983;SDS011;40884;53.562;9.940;2023-03-31T06:14:47;14.47;;;6.70;;
54983;SDS011;40884;53.562;9.940;2023-03-31T06:15:57;14.23;;;6.73;;
54983;SDS011;40884;53.562;9.940;2023-03-31T06:16:57;15.30;;;7.40;;
54983;SDS011;40884;53.562;9.940;2023-03-31T06:17:57;15.47;;;7.87;;
54983;SDS011;40884;53.562;9.940;2023-03-31T06:18:57;14.90;;;6.17;;
54983;SDS011;40884;53.562;9.940;2023-03-31T06:19:57;15.10;;;6.00;;
54983;SDS011;40884;53.562;9.940;2023-03-31T06:20:58;11.23;;;5.93;;
54983;SDS011;40884;53.562;9.940;2023-03-31T06:21:58;13.07;;;6.17;;
54983;SDS011;40884;53.562;9.940;2023-03-31T06:22:58;17.53;;;6.40;;
54983;SDS011;40884;53.562;9.940;2023-03-31T06:23:58;13.70;;;7.30;;
54983;SDS011;40884;53.562;9.940;2023-03-31T06:24:58;13.47;;;6.53;;
54983;SDS011;40884;53.562;9.940;2023-03-31T06:26:02;10.50;;;5.87;;
54983;SDS011;40884;53.562;9.940;2023-03-31T06:27:03;17.00;;;6.73;;
54983;SDS011;40884;53.562;9.940;2023-03-31T06:28:04;13.27;;;6.73;;
54983;SDS011;40884;53.562;9.940;2023-03-31T06:29:05;11.73;;;6.10;;
54983;SDS011;40884;53.562;9.940;2023-03-31T06:30:05;14.30;;;6.60;;
54983;SDS011;40884;53.562;9.940;2023-03-31T06:31:07;13.17;;;5.90;;